sensor_id;sensor_type;location;lat;lon;timestamp;pressure;altitude;pressure_sealevel;temperature;humidity
26915;BME280;14480;52.608;13.416;2023-04-06T10:06:56;142562.56;;;-5.83;51.95
26915;BME280;14480;52.608;13.416;2023-04-06T10:12:00;142630.66;;;-5.55;51.80
26915;BME280;14480;52.608;13.416;2023-04-06T10:17:04;142655.38;;;-5.45;53.11
26915;BME280;14480;52.608;13.416;2023-04-06T10:22:09;142752.00;;;-5.06;52.42
26915;BME280;14480;52.608;13.416;2023-04-06T10:27:16;142733.41;;;-5.13;51.00
26915;BME280;14480;52.608;13.416;2023-04-06T10:32:34;142785.44;;;-4.92;51.11
26915;BME280;14480;52.608;13.416;2023-04-06T10:37:47;142823.84;;;-4.76;50.49
26915;BME280;14480;52.608;13.416;2023-04-06T10:43:39;142921.75;;;-4.36;46.64
26915;BME280;14480;52.608;13.416;2023-04-06T10:48:47;142980.03;;;-4.12;46.71
26915;BME280;14480;52.608;13.416;2023-04-06T10:53:56;143054.44;;;-3.82;45.88
26915;BME280;14480;52.608;13.416;2023-04-06T10:59:00;143110.25;;;-3.59;46.41
26915;BME280;14480;52.608;13.416;2023-04-06T11:04:04;143051.91;;;-3.83;45.60
26915;BME280;14480;52.608;13.416;2023-04-06T11:09:11;142999.88;;;-4.04;45.53
26915;BME280;14480;52.608;13.416;2023-04-06T11:14:15;142935.38;;;-4.30;46.82
26915;BME280;14480;52.608;13.416;2023-04-06T11:19:19;142956.47;;;-4.22;46.58
26915;BME280;14480;52.608;13.416;2023-04-06T11:24:25;142851.09;;;-4.65;48.25
26915;BME280;14480;52.608;13.416;2023-04-06T11:29:29;142918.06;;;-4.37;46.53
26915;BME280;14480;52.608;13.416;2023-04-06T11:34:37;142706.16;;;-5.24;47.05
26915;BME280;14480;52.608;13.416;2023-04-06T11:39:46;142687.63;;;-5.32;46.97
26915;BME280;14480;52.608;13.416;2023-04-06T11:44:51;142750.78;;;-5.06;46.77
26915;BME280;14480;52.608;13.416;2023-04-06T11:49:54;142932.91;;;-4.31;47.29
26915;BME280;14480;52.608;13.416;2023-04-06T11:55:09;142994.88;;;-4.06;46.46
26915;BME280;14480;52.608;13.416;2023-04-06T12:00:13;143116.44;;;-3.56;45.89
26915;BME280;14480;52.608;13.416;2023-04-06T12:05:18;143073.00;;;-3.74;48.12
26915;BME280;14480;52.608;13.416;2023-04-06T12:10:23;143066.81;;;-3.76;48.24
26915;BME280;14480;52.608;13.416;2023-04-06T12:15:27;143084.19;;;-3.69;46.19
26915;BME280;14480;52.608;13.416;2023-04-06T12:20:31;143013.47;;;-3.98;46.22
26915;BME280;14480;52.608;13.416;2023-04-06T12:25:36;142924.25;;;-4.35;46.88
26915;BME280;14480;52.608;13.416;2023-04-06T12:30:42;142817.66;;;-4.79;47.21
26915;BME280;14480;52.608;13.416;2023-04-06T12:35:49;142833.78;;;-4.72;47.06
26915;BME280;14480;52.608;13.416;2023-04-06T12:40:54;142781.75;;;-4.93;50.48
26915;BME280;14480;52.608;13.416;2023-04-06T12:45:57;142827.56;;;-4.75;51.57
26915;BME280;14480;52.608;13.416;2023-04-06T12:51:02;142750.78;;;-5.06;50.81
26915;BME280;14480;52.608;13.416;2023-04-06T12:56:14;142677.69;;;-5.36;51.12
26915;BME280;14480;52.608;13.416;2023-04-06T13:01:24;142770.56;;;-4.98;51.34
26915;BME280;14480;52.608;13.416;2023-04-06T13:06:30;142740.84;;;-5.10;52.46
26915;BME280;14480;52.608;13.416;2023-04-06T13:11:37;142791.63;;;-4.89;53.02
26915;BME280;14480;52.608;13.416;2023-04-06T13:16:45;142787.91;;;-4.91;51.73
26915;BME280;14480;52.608;13.416;2023-04-06T13:21:49;142775.56;;;-4.96;52.25
26915;BME280;14480;52.608;13.416;2023-04-06T13:26:54;142649.22;;;-5.48;50.09
26915;BME280;14480;52.608;13.416;2023-04-06T13:31:59;142707.41;;;-5.24;53.37
26915;BME280;14480;52.608;13.416;2023-04-06T13:37:02;142662.84;;;-5.42;50.70
26915;BME280;14480;52.608;13.416;2023-04-06T13:42:08;142671.50;;;-5.39;51.71
26915;BME280;14480;52.608;13.416;2023-04-06T13:47:12;142678.91;;;-5.36;50.75
26915;BME280;14480;52.608;13.416;2023-04-06T13:52:17;142680.16;;;-5.35;50.84
26915;BME280;14480;52.608;13.416;2023-04-06T14:02:43;142619.50;;;-5.60;52.03
26915;BME280;14480;52.608;13.416;2023-04-06T14:07:47;142605.91;;;-5.66;53.09
26915;BME280;14480;52.608;13.416;2023-04-06T14:12:50;142555.13;;;-5.87;53.16
26915;BME280;14480;52.608;13.416;2023-04-06T14:17:59;142520.53;;;-6.01;54.59
26915;BME280;14480;52.608;13.416;2023-04-06T14:23:05;142467.31;;;-6.23;54.83
26915;BME280;14480;52.608;13.416;2023-04-06T14:28:12;142498.25;;;-6.10;53.50
26915;BME280;14480;52.608;13.416;2023-04-06T14:33:20;142537.84;;;-5.94;52.94
26915;BME280;14480;52.608;13.416;2023-04-06T14:38:24;142552.66;;;-5.88;52.88
26915;BME280;14480;52.608;13.416;2023-04-06T14:43:27;142492.06;;;-6.12;53.57
26915;BME280;14480;52.608;13.416;2023-04-06T14:48:34;142510.59;;;-6.05;54.25
26915;BME280;14480;52.608;13.416;2023-04-06T14:53:39;142471.03;;;-6.21;54.37
26915;BME280;14480;52.608;13.416;2023-04-06T14:58:43;142482.13;;;-6.17;53.22
26915;BME280;14480;52.608;13.416;2023-04-06T15:03:48;142424.00;;;-6.40;53.01
26915;BME280;14480;52.608;13.416;2023-04-06T15:08:53;142437.63;;;-6.35;54.82
26915;BME280;14480;52.608;13.416;2023-04-06T15:13:59;142458.63;;;-6.26;55.00
26915;BME280;14480;52.608;13.416;2023-04-06T15:19:04;142399.25;;;-6.51;54.98
26915;BME280;14480;52.608;13.416;2023-04-06T15:24:08;142452.44;;;-6.29;54.35
26915;BME280;14480;52.608;13.416;2023-04-06T15:29:14;142414.13;;;-6.44;55.25
26915;BME280;14480;52.608;13.416;2023-04-06T15:34:19;142411.63;;;-6.45;55.51
26915;BME280;14480;52.608;13.416;2023-04-06T15:39:23;142448.75;;;-6.30;55.62
26915;BME280;14480;52.608;13.416;2023-04-06T15:44:27;142441.34;;;-6.33;55.43
26915;BME280;14480;52.608;13.416;2023-04-06T15:49:32;142398.00;;;-6.51;55.80
26915;BME280;14480;52.608;13.416;2023-04-06T15:54:38;142369.56;;;-6.63;56.21
26915;BME280;14480;52.608;13.416;2023-04-06T15:59:42;142374.50;;;-6.61;55.88
26915;BME280;14480;52.608;13.416;2023-04-06T16:04:47;142362.16;;;-6.66;56.38
26915;BME280;14480;52.608;13.416;2023-04-06T16:10:12;142343.56;;;-6.73;56.31
26915;BME280;14480;52.608;13.416;2023-04-06T16:15:17;142328.75;;;-6.80;56.69
26915;BME280;14480;52.608;13.416;2023-04-06T16:20:23;142316.38;;;-6.85;55.02
26915;BME280;14480;52.608;13.416;2023-04-06T16:25:28;142304.03;;;-6.90;55.91
26915;BME280;14480;52.608;13.416;2023-04-06T16:30:35;142312.66;;;-6.86;55.78
26915;BME280;14480;52.608;13.416;2023-04-06T16:35:45;142306.50;;;-6.89;55.17
26915;BME280;14480;52.608;13.416;2023-04-06T16:40:57;142291.63;;;-6.95;55.51
26915;BME280;14480;52.608;13.416;2023-04-06T16:46:01;142280.53;;;-6.99;55.83
26915;BME280;14480;52.608;13.416;2023-04-06T16:51:06;142253.31;;;-7.11;56.98
26915;BME280;14480;52.608;13.416;2023-04-06T16:56:10;142254.56;;;-7.10;57.68
26915;BME280;14480;52.608;13.416;2023-04-06T17:01:17;142244.69;;;-7.14;56.95
26915;BME280;14480;52.608;13.416;2023-04-06T17:06:23;142212.53;;;-7.27;57.27
26915;BME280;14480;52.608;13.416;2023-04-06T17:11:30;142211.31;;;-7.28;57.46
26915;BME280;14480;52.608;13.416;2023-04-06T17:16:47;142166.78;;;-7.46;57.32
26915;BME280;14480;52.608;13.416;2023-04-06T17:21:52;142139.59;;;-7.57;58.21
26915;BME280;14480;52.608;13.416;2023-04-06T17:26:57;142119.81;;;-7.66;59.09
26915;BME280;14480;52.608;13.416;2023-04-06T17:32:01;142082.75;;;-7.81;59.88
26915;BME280;14480;52.608;13.416;2023-04-06T17:37:06;142053.09;;;-7.93;60.58
26915;BME280;14480;52.608;13.416;2023-04-06T17:42:10;141998.75;;;-8.15;61.93
26915;BME280;14480;52.608;13.416;2023-04-06T17:47:14;141951.84;;;-8.35;63.12
26915;BME280;14480;52.608;13.416;2023-04-06T17:52:20;141908.66;;;-8.52;64.24
26915;BME280;14480;52.608;13.416;2023-04-06T17:57:23;141875.31;;;-8.66;64.38
26915;BME280;14480;52.608;13.416;2023-04-06T18:02:28;141841.94;;;-8.80;65.63
26915;BME280;14480;52.608;13.416;2023-04-06T18:07:37;141806.16;;;-8.95;66.68
26915;BME280;14480;52.608;13.416;2023-04-06T18:12:56;141786.41;;;-9.03;66.18
26915;BME280;14480;52.608;13.416;2023-04-06T18:18:03;141766.69;;;-9.11;67.27
26915;BME280;14480;52.608;13.416;2023-04-06T18:23:10;141743.22;;;-9.21;67.47
26915;BME280;14480;52.608;13.416;2023-04-06T18:28:14;141711.16;;;-9.34;67.62
26915;BME280;14480;52.608;13.416;2023-04-06T18:33:19;141675.41;;;-9.49;68.33
26915;BME280;14480;52.608;13.416;2023-04-06T18:38:25;141660.56;;;-9.55;68.31
26915;BME280;14480;52.608;13.416;2023-04-06T18:43:28;141640.81;;;-9.63;68.84
26915;BME280;14480;52.608;13.416;2023-04-06T18:48:38;141600.13;;;-9.80;70.06
26915;BME280;14480;52.608;13.416;2023-04-06T18:53:44;141580.38;;;-9.88;70.36
26915;BME280;14480;52.608;13.416;2023-04-06T18:58:47;141554.50;;;-9.98;71.16
26915;BME280;14480;52.608;13.416;2023-04-06T19:03:55;141534.78;;;-10.07;71.44
26915;BME280;14480;52.608;13.416;2023-04-06T19:09:04;141506.44;;;-10.18;72.61
26915;BME280;14480;52.608;13.416;2023-04-06T19:14:10;141499.06;;;-10.21;73.03
26915;BME280;14480;52.608;13.416;2023-04-06T19:24:55;141421.38;;;-10.53;75.15
26915;BME280;14480;52.608;13.416;2023-04-06T19:29:59;141411.53;;;-10.57;75.79
26915;BME280;14480;52.608;13.416;2023-04-06T19:35:03;141377.03;;;-10.72;76.44
26915;BME280;14480;52.608;13.416;2023-04-06T19:40:12;141364.69;;;-10.77;77.05
26915;BME280;14480;52.608;13.416;2023-04-06T19:45:16;141346.25;;;-10.84;77.58
26915;BME280;14480;52.608;13.416;2023-04-06T19:50:20;141342.56;;;-10.86;77.64
26915;BME280;14480;52.608;13.416;2023-04-06T19:55:27;141324.06;;;-10.94;78.23
26915;BME280;14480;52.608;13.416;2023-04-06T20:00:32;141299.41;;;-11.04;79.15
26915;BME280;14480;52.608;13.416;2023-04-06T20:05:56;141280.94;;;-11.11;79.79
26915;BME280;14480;52.608;13.416;2023-04-06T20:22:08;141236.63;;;-11.30;81.45
26915;BME280;14480;52.608;13.416;2023-04-06T20:27:29;141210.75;;;-11.40;81.69
26915;BME280;14480;52.608;13.416;2023-04-06T20:32:33;141192.25;;;-11.48;81.99
26915;BME280;14480;52.608;13.416;2023-04-06T20:37:40;141186.13;;;-11.51;82.23
26915;BME280;14480;52.608;13.416;2023-04-06T20:42:46;141167.63;;;-11.58;82.20
26915;BME280;14480;52.608;13.416;2023-04-06T20:47:50;141154.09;;;-11.64;82.84
26915;BME280;14480;52.608;13.416;2023-04-06T20:53:03;141143.03;;;-11.68;82.72
26915;BME280;14480;52.608;13.416;2023-04-06T20:58:06;141113.56;;;-11.81;83.15
26915;BME280;14480;52.608;13.416;2023-04-06T21:03:11;141106.13;;;-11.84;83.66
26915;BME280;14480;52.608;13.416;2023-04-06T21:08:16;141085.19;;;-11.92;84.18
26915;BME280;14480;52.608;13.416;2023-04-06T21:13:28;141068.00;;;-11.99;84.70
26915;BME280;14480;52.608;13.416;2023-04-06T21:18:32;141043.38;;;-12.10;85.75
26915;BME280;14480;52.608;13.416;2023-04-06T21:23:41;141022.44;;;-12.18;86.17
26915;BME280;14480;52.608;13.416;2023-04-06T21:28:45;141010.16;;;-12.23;87.10
26915;BME280;14480;52.608;13.416;2023-04-06T21:33:49;140995.38;;;-12.29;87.57
26915;BME280;14480;52.608;13.416;2023-04-06T21:38:54;140985.53;;;-12.33;87.73
26915;BME280;14480;52.608;13.416;2023-04-06T21:43:58;140971.97;;;-12.39;88.22
26915;BME280;14480;52.608;13.416;2023-04-06T21:49:03;140956.03;;;-12.46;88.85
26915;BME280;14480;52.608;13.416;2023-04-06T21:54:08;140931.41;;;-12.56;89.00
26915;BME280;14480;52.608;13.416;2023-04-06T21:59:12;140911.72;;;-12.64;89.85
26915;BME280;14480;52.608;13.416;2023-04-06T22:04:16;140900.66;;;-12.69;89.95
26915;BME280;14480;52.608;13.416;2023-04-06T22:09:28;140882.19;;;-12.76;89.67
26915;BME280;14480;52.608;13.416;2023-04-06T22:14:33;140877.28;;;-12.78;90.13
26915;BME280;14480;52.608;13.416;2023-04-06T22:19:38;140866.22;;;-12.83;90.21
26915;BME280;14480;52.608;13.416;2023-04-06T22:24:44;140857.59;;;-12.86;90.62
26915;BME280;14480;52.608;13.416;2023-04-06T22:29:48;140837.97;;;-12.94;91.37
26915;BME280;14480;52.608;13.416;2023-04-06T22:35:30;140807.22;;;-13.07;92.06
26915;BME280;14480;52.608;13.416;2023-04-06T22:46:00;140774.03;;;-13.21;93.00
